Breckenridge, Illinois
Current Conditions -  °F | °C
As of 4:52 PM on Monday 20 Oct 2014 (Local Time) from KSPI Reporting Station
Clear Clear  
Wind Chill: 21°   Ceiling: Unl
Heat Index: 21°   Visibility: 10mi
Dew Point:   Wind: 13mph
Humidity: 40%   Direction: 300°WNW
Pressure: 29.94"   Gusts: 17mph
Location:  39.7312°N, 89.5322°W
Report Text: KSPI 202152Z 30011G15KT 10SM CLR 21/07 A2994 RMK AO2 SLP136 T02060067
Loading
Personal Weather Stations






























Interactive Weather Map
Tropical Storm Tracking
New forecast layout! Learn more

10-Day Weather Forecast

Advertisements
Track Severe Weather on mobile